Decoded Metar for KMEH (MEACHAM in OR, USA) (IATA:MEH) | Meteo·Mobile Aviation Weather
aviador You're here:

KMEH Decoded Metar

MEACHAM in OR, USA
Report Time2019-02-16 17:56:00
UTC Time2019-02-16 18:03:35
Flight Rules mvfr MVFR
WindCalm
Visibility9999 m
Phenomena:N/A
Clouds:Overcast 023 Hf
Expected CloudBase > 1,200 ft AGL from Temp-Dew spread
Ceiling2,300 ft
Temp00°C (ISA -8)
Dew Point-3°C (80% RH)
AAT-2.4°C
QNH1006 hPa
Density Alt3,127 ft
Elevation3,727 ft
Report Wrong Elevation
Raw Report
KMEH 161756Z AUTO 00000KT 10SM OVC023 00/M03 A2971 RMK AO2 SNE11
SLP087 P0000 60000 T00001033 10000 21033 53004=

Extra information for KMEH:More info

Metar Taf Metar & Taf Last 4 Metars F.Rules Stats Wind Profile Meteogram Temp Stats Airport Information Weather charts Add Link Nearby VenuesMetar ALERT Operation Metar Decoded Social comments

AIRNAV info for KMEH